Time;durP1;ratioP1;P1;durP2;ratioP2;P2;SDS_P1;SDS_P2;PMS_P1;PMS_P2;Temp;Humidity;BMP_temperature;BMP_pressure;BME280_temperature;BME280_humidity;BME280_pressure;Samples;Min_cycle;Max_cycle;Signal;HPM_P1;HPM_P2
2021/12/05 00:22:16;;;;;;;84.90;40.10;;;;;;;-0.22;77.19;99497.33;1674476;83;27476;-80
2021/12/05 00:24:46;;;;;;;80.30;38.63;;;;;;;-0.21;77.19;99496.33;1705671;83;25467;-80
2021/12/05 00:27:21;;;;;;;82.62;41.05;;;;;;;-0.21;77.20;99496.33;1700423;83;26479;-80
2021/12/05 00:29:55;;;;;;;86.30;39.95;;;;;;;-0.22;77.13;99501.27;1694769;83;25817;-80
2021/12/05 00:32:24;;;;;;;88.52;41.80;;;;;;;-0.23;77.22;99503.06;1668512;84;26320;-80
2021/12/05 00:40:33;;;;;;;84.13;40.83;;;;;;;-0.24;77.03;99508.00;1690584;83;25886;-80
2021/12/05 01:04:05;;;;;;;75.30;37.10;;;;;;;-0.38;77.18;99521.61;1689306;84;25902;-80
2021/12/05 01:11:44;;;;;;;68.10;34.10;;;;;;;-0.35;77.59;99525.28;1695218;83;25793;-80
2021/12/05 01:16:28;;;;;;;62.70;34.00;;;;;;;-0.37;77.77;99523.28;1687252;84;26504;-80
2021/12/05 01:18:55;;;;;;;62.55;32.33;;;;;;;-0.38;77.91;99518.14;1694356;84;25874;-80
2021/12/05 01:21:25;;;;;;;67.30;33.90;;;;;;;-0.38;77.99;99517.66;1693721;84;26134;-80
2021/12/05 01:24:12;;;;;;;64.17;32.98;;;;;;;-0.36;78.05;99523.61;1690852;84;25341;-81
2021/12/05 01:26:54;;;;;;;76.37;36.33;;;;;;;-0.35;78.08;99520.02;1692270;83;28394;-80
2021/12/05 01:36:55;;;;;;;67.40;34.18;;;;;;;-0.32;78.26;99504.44;1698343;82;25793;-80
2021/12/05 01:39:30;;;;;;;70.10;33.63;;;;;;;-0.33;78.26;99502.77;1695857;83;27700;-80
2021/12/05 01:44:50;;;;;;;68.50;33.05;;;;;;;-0.33;78.46;99496.19;1662782;85;25842;-80
2021/12/05 01:52:44;;;;;;;63.85;31.65;;;;;;;-0.32;78.61;99489.45;1660164;81;27670;-80
2021/12/05 01:55:14;;;;;;;57.62;30.20;;;;;;;-0.33;78.61;99484.34;1700165;83;25979;-80
2021/12/05 01:57:39;;;;;;;67.55;30.90;;;;;;;-0.33;78.75;99488.30;1697605;83;25883;-80
2021/12/05 02:00:05;;;;;;;63.60;29.77;;;;;;;-0.34;78.83;99491.41;1700099;83;26041;-81
2021/12/05 02:02:53;;;;;;;61.58;32.10;;;;;;;-0.34;78.91;99483.52;1695249;83;25807;-80
2021/12/05 02:08:06;;;;;;;63.35;30.23;;;;;;;-0.31;79.01;99488.98;1704722;82;26087;-79
2021/12/05 02:16:05;;;;;;;58.78;28.85;;;;;;;-0.29;79.27;99498.39;1708180;83;25328;-80
2021/12/05 02:29:58;;;;;;;60.98;29.60;;;;;;;-0.23;79.39;99487.76;1699342;83;25875;-80
2021/12/05 02:35:01;;;;;;;69.75;31.60;;;;;;;-0.25;79.51;99491.02;1709230;83;26551;-80
2021/12/05 02:40:23;;;;;;;57.23;29.05;;;;;;;-0.22;79.67;99492.90;1701538;83;25850;-80
2021/12/05 02:42:47;;;;;;;;;;;;;;;-0.20;79.67;99478.27;1698250;83;25829;-80
2021/12/05 02:45:09;;;;;;;64.62;33.35;;;;;;;-0.19;79.74;99485.17;1703367;83;27493;-80
2021/12/05 02:47:37;;;;;;;63.87;31.93;;;;;;;-0.22;79.73;99486.31;1700908;83;25616;-81
2021/12/05 02:50:11;;;;;;;63.83;31.05;;;;;;;-0.20;79.84;99481.73;1699906;83;25522;-80
2021/12/05 02:52:41;;;;;;;57.75;28.85;;;;;;;-0.18;79.85;99475.00;1703969;83;25836;-80
2021/12/05 02:55:13;;;;;;;58.40;29.42;;;;;;;-0.19;79.83;99470.22;1703930;83;25841;-80
2021/12/05 03:00:19;;;;;;;59.03;30.37;;;;;;;-0.19;79.90;99462.80;1702355;83;26062;-80
2021/12/05 03:02:48;;;;;;;67.82;32.45;;;;;;;-0.19;79.91;99464.12;1706533;83;25300;-80
2021/12/05 03:05:18;;;;;;;67.50;34.38;;;;;;;-0.19;79.99;99465.44;1700925;83;25932;-80
2021/12/05 03:07:46;;;;;;;58.90;30.70;;;;;;;-0.17;79.95;99476.16;1698882;83;26541;-80
2021/12/05 03:10:16;;;;;;;54.75;29.90;;;;;;;-0.14;79.95;99477.68;1704262;83;28402;-80
2021/12/05 03:12:45;;;;;;;65.20;30.25;;;;;;;-0.11;79.99;99478.72;1706642;83;25849;-80
2021/12/05 03:15:15;;;;;;;66.15;31.57;;;;;;;-0.10;79.95;99480.36;1701598;83;25803;-80
2021/12/05 03:17:43;;;;;;;61.58;31.23;;;;;;;-0.07;79.98;99478.77;1700897;83;25842;-80
2021/12/05 03:20:13;;;;;;;60.08;30.88;;;;;;;-0.04;80.01;99479.77;1704581;83;25909;-81
2021/12/05 03:22:40;;;;;;;53.87;26.73;;;;;;;-0.03;79.93;99474.38;1702043;83;27473;-81
2021/12/05 03:25:09;;;;;;;52.55;27.30;;;;;;;-0.04;79.95;99467.92;1699388;83;26515;-80
2021/12/05 03:27:39;;;;;;;56.68;27.82;;;;;;;-0.05;79.88;99468.91;1715055;83;26310;-80
2021/12/05 03:30:07;;;;;;;60.92;28.95;;;;;;;-0.07;80.02;99473.02;1712806;83;25985;-80
2021/12/05 03:32:37;;;;;;;56.25;26.15;;;;;;;-0.05;80.14;99471.55;1707358;83;26525;-80
2021/12/05 03:35:06;;;;;;;60.63;30.02;;;;;;;-0.04;80.07;99466.13;1710688;83;28523;-80
2021/12/05 03:37:33;;;;;;;55.92;29.92;;;;;;;-0.01;80.14;99467.16;1714125;83;25969;-80
2021/12/05 03:40:03;;;;;;;54.93;29.48;;;;;;;0.03;80.17;99466.37;1707811;83;25302;-80
2021/12/05 03:42:30;;;;;;;53.48;29.25;;;;;;;0.04;80.09;99469.83;1706984;83;25804;-80
2021/12/05 03:44:57;;;;;;;55.48;27.80;;;;;;;0.06;80.30;99474.46;1699180;83;25791;-81
2021/12/05 03:47:28;;;;;;;54.60;28.42;;;;;;;0.05;80.21;99482.84;1698913;83;27481;-81
2021/12/05 03:49:55;;;;;;;58.13;28.67;;;;;;;0.05;80.13;99485.47;1711347;83;25839;-80
2021/12/05 03:52:23;;;;;;;62.65;28.98;;;;;;;0.06;80.27;99485.83;1698548;83;25958;-81
2021/12/05 03:54:50;;;;;;;60.75;28.98;;;;;;;0.04;80.28;99479.88;1715076;83;26237;-81
2021/12/05 03:57:17;;;;;;;56.28;28.15;;;;;;;0.03;80.26;99478.21;1673578;83;25904;-81
2021/12/05 03:59:45;;;;;;;66.22;30.62;;;;;;;0.00;80.28;99481.16;1709437;83;27441;-80
2021/12/05 04:02:11;;;;;;;84.85;34.88;;;;;;;-0.04;80.27;99479.28;1701721;83;25784;-80
2021/12/05 04:04:40;;;;;;;101.65;38.20;;;;;;;-0.05;80.42;99481.59;1700145;83;25872;-81
2021/12/05 04:07:09;;;;;;;102.67;39.63;;;;;;;-0.05;80.36;99486.86;1699391;83;26014;-80
2021/12/05 04:09:36;;;;;;;74.62;33.65;;;;;;;-0.07;80.40;99485.34;1703597;83;25911;-80
2021/12/05 04:12:04;;;;;;;115.08;43.55;;;;;;;-0.07;80.37;99490.13;1699215;83;26926;-80
2021/12/05 04:14:43;;;;;;;113.52;46.40;;;;;;;-0.07;80.41;99488.81;1701223;83;25850;-80
2021/12/05 04:17:13;;;;;;;93.15;38.95;;;;;;;-0.04;80.40;99498.19;1697781;82;25860;-81
2021/12/05 04:19:40;;;;;;;78.65;36.13;;;;;;;-0.05;80.31;99500.02;1683738;83;25804;-80
2021/12/05 04:22:09;;;;;;;56.37;30.10;;;;;;;-0.05;80.23;99504.45;1702485;83;25348;-80
2021/12/05 04:24:37;;;;;;;56.02;28.70;;;;;;;-0.06;80.29;99511.51;1701026;83;27424;-80
2021/12/05 04:27:04;;;;;;;79.75;39.33;;;;;;;-0.06;80.19;99516.77;1674730;83;25898;-81
2021/12/05 04:29:33;;;;;;;73.57;35.43;;;;;;;-0.07;80.22;99519.08;1709708;83;26091;-80
2021/12/05 04:32:00;;;;;;;65.30;32.78;;;;;;;-0.07;80.27;99519.08;1696800;83;26836;-80
2021/12/05 04:34:27;;;;;;;87.30;39.35;;;;;;;-0.06;80.33;99515.45;1701637;83;25614;-81
2021/12/05 04:36:57;;;;;;;61.90;31.77;;;;;;;-0.03;80.37;99513.86;1702120;83;27447;-81
2021/12/05 04:39:26;;;;;;;71.20;31.93;;;;;;;-0.03;80.24;99513.86;1698442;83;26619;-80
2021/12/05 04:41:55;;;;;;;67.67;31.62;;;;;;;-0.04;80.20;99513.98;1695465;83;25823;-80
2021/12/05 04:44:22;;;;;;;79.67;36.17;;;;;;;-0.06;80.24;99506.24;1675839;83;25454;-80
2021/12/05 04:46:49;;;;;;;71.02;34.23;;;;;;;-0.05;80.26;99506.60;1699546;83;25850;-80
2021/12/05 04:49:17;;;;;;;61.42;28.92;;;;;;;-0.04;80.21;99516.61;1701448;83;27461;-80
2021/12/05 04:51:45;;;;;;;81.70;38.58;;;;;;;-0.06;80.15;99515.94;1699017;83;25765;-80
2021/12/05 04:54:17;;;;;;;52.62;27.87;;;;;;;-0.07;80.13;99521.71;1711265;83;25958;-80
2021/12/05 04:56:45;;;;;;;44.83;24.73;;;;;;;-0.08;80.11;99516.57;1703461;83;26010;-80
2021/12/05 04:59:14;;;;;;;45.55;24.05;;;;;;;-0.11;80.14;99512.93;1717891;83;26281;-80
2021/12/05 05:01:44;;;;;;;44.42;23.85;;;;;;;-0.14;80.14;99498.73;1698997;83;28403;-80
2021/12/05 05:04:27;;;;;;;40.17;24.02;;;;;;;-0.18;80.02;99502.16;1699922;83;25933;-80
2021/12/05 05:07:05;;;;;;;46.95;23.73;;;;;;;-0.20;80.02;99499.32;1704338;82;25842;-80
2021/12/05 05:09:31;;;;;;;51.98;27.00;;;;;;;-0.25;80.06;99501.07;1692139;83;26046;-80
2021/12/05 05:11:58;;;;;;;43.98;23.00;;;;;;;-0.25;80.08;99505.50;1701673;83;25893;-81
2021/12/05 05:14:26;;;;;;;49.53;24.80;;;;;;;-0.25;80.01;99500.23;1699608;83;27470;-81
2021/12/05 05:16:54;;;;;;;37.83;19.77;;;;;;;-0.27;79.99;99503.50;1696056;83;25521;-81
2021/12/05 05:19:30;;;;;;;43.92;23.55;;;;;;;-0.29;79.85;99504.13;1700740;83;25821;-80
2021/12/05 05:22:01;;;;;;;46.02;22.82;;;;;;;-0.33;79.84;99501.45;1696906;83;26297;-80
2021/12/05 05:29:59;;;;;;;51.95;25.92;;;;;;;-0.44;80.02;99509.03;1723476;82;25840;-80
2021/12/05 05:40:40;;;;;;;41.33;23.10;;;;;;;-0.43;80.09;99519.92;1713946;83;27668;-81
2021/12/05 05:43:12;;;;;;;47.70;22.62;;;;;;;-0.43;80.09;99519.08;1705507;83;26383;-81
2021/12/05 05:45:46;;;;;;;44.88;23.73;;;;;;;-0.47;79.94;99521.66;1700655;82;25916;-81
2021/12/05 05:50:38;;;;;;;52.17;27.32;;;;;;;-0.51;80.10;99522.41;1708578;82;25308;-80
2021/12/05 05:53:06;;;;;;;49.33;26.15;;;;;;;-0.51;80.26;99528.17;1728307;82;27697;-81
2021/12/05 05:55:33;;;;;;;51.55;26.15;;;;;;;-0.49;80.28;99534.13;1713190;83;26054;-80
2021/12/05 05:58:15;;;;;;;45.43;25.00;;;;;;;-0.46;80.33;99535.14;1711694;83;25766;-81
2021/12/05 06:00:52;;;;;;;41.83;21.70;;;;;;;-0.42;80.32;99534.70;1708174;83;26051;-80
2021/12/05 06:03:22;;;;;;;47.40;25.05;;;;;;;-0.42;80.15;99529.45;1709684;83;26068;-80
2021/12/05 06:06:02;;;;;;;48.38;24.20;;;;;;;-0.44;80.16;99530.08;1730115;82;27650;-80
2021/12/05 06:08:32;;;;;;;48.30;25.10;;;;;;;-0.43;80.18;99534.86;1710979;83;26508;-80
2021/12/05 06:11:04;;;;;;;46.17;24.03;;;;;;;-0.42;80.23;99541.28;1707397;83;25774;-80
2021/12/05 06:13:32;;;;;;;45.23;23.55;;;;;;;-0.45;80.17;99542.07;1679334;83;25542;-80
2021/12/05 06:15:59;;;;;;;40.95;22.73;;;;;;;-0.49;80.23;99544.13;1716013;81;25916;-80
2021/12/05 06:18:26;;;;;;;47.20;23.92;;;;;;;-0.49;80.32;99542.82;1702466;83;27474;-80
2021/12/05 06:20:53;;;;;;;42.27;22.67;;;;;;;-0.49;80.31;99555.97;1712339;83;25927;-81
2021/12/05 06:23:20;;;;;;;46.65;25.88;;;;;;;-0.49;80.37;99557.28;1707926;83;25813;-80
2021/12/05 06:25:50;;;;;;;49.48;26.37;;;;;;;-0.48;80.41;99554.17;1709166;83;26235;-81
2021/12/05 06:28:26;;;;;;;41.50;22.87;;;;;;;-0.49;80.44;99559.91;1710466;83;25385;-80
2021/12/05 06:31:04;;;;;;;44.25;24.10;;;;;;;-0.49;80.41;99560.42;1701574;83;27524;-81
2021/12/05 06:39:20;;;;;;;47.40;23.27;;;;;;;-0.50;80.47;99564.84;1690975;84;26318;-81
2021/12/05 06:46:55;;;;;;;47.20;24.10;;;;;;;-0.50;80.54;99561.38;1690987;84;25801;-80
2021/12/05 06:49:21;;;;;;;43.65;23.30;;;;;;;-0.51;80.48;99559.74;1690663;84;25371;-81
2021/12/05 06:51:47;;;;;;;51.60;27.65;;;;;;;-0.55;80.51;99564.44;1689379;84;26036;-80
2021/12/05 06:54:14;;;;;;;46.50;24.67;;;;;;;-0.55;80.59;99572.33;1691933;84;25784;-81
2021/12/05 06:56:40;;;;;;;49.20;27.17;;;;;;;-0.51;80.62;99580.78;1690977;83;27422;-80
2021/12/05 06:59:06;;;;;;;45.35;25.05;;;;;;;-0.49;80.56;99584.09;1696972;84;25803;-82
2021/12/05 07:01:33;;;;;;;62.15;31.50;;;;;;;-0.50;80.56;99588.52;1692882;84;25821;-81
2021/12/05 07:04:06;;;;;;;48.60;26.73;;;;;;;-0.51;80.54;99590.80;1687407;84;26627;-81
2021/12/05 07:06:28;;;;;;;59.55;30.68;;;;;;;-0.48;80.64;99598.89;1678115;84;26099;-81
2021/12/05 07:08:59;;;;;;;43.58;23.98;;;;;;;-0.47;80.64;99605.83;1687124;84;27552;-81
2021/12/05 07:11:27;;;;;;;51.40;25.08;;;;;;;-0.48;80.57;99608.09;1696471;84;25359;-82
2021/12/05 07:19:19;;;;;;;43.00;25.52;;;;;;;-0.44;80.77;99610.79;1699006;83;25950;-81
2021/12/05 07:22:22;;;;;;;49.73;25.05;;;;;;;-0.43;80.71;99608.52;1702101;83;28306;-81
2021/12/05 07:24:17;;;;;;;43.28;24.12;;;;;;;-0.42;80.71;99605.73;1681652;83;25800;-81
2021/12/05 07:40:27;;;;;;;42.95;23.45;;;;;;;-0.28;80.77;99591.31;1712795;82;25854;-80
2021/12/05 07:43:00;;;;;;;41.63;21.53;;;;;;;-0.26;80.69;99600.73;1715584;82;25957;-80
2021/12/05 07:45:42;;;;;;;40.52;21.12;;;;;;;-0.24;80.69;99605.37;1710443;82;25857;-80
2021/12/05 07:48:11;;;;;;;43.17;22.87;;;;;;;-0.23;80.59;99604.37;1702194;82;27486;-80
2021/12/05 07:50:49;;;;;;;39.70;22.77;;;;;;;-0.24;80.61;99604.05;1720000;82;25342;-80
2021/12/05 07:53:17;;;;;;;41.00;21.23;;;;;;;-0.23;80.60;99605.69;1707598;82;25804;-80
2021/12/05 07:55:42;;;;;;;43.55;22.85;;;;;;;-0.24;80.53;99605.37;1704341;82;25566;-80
2021/12/05 07:58:33;;;;;;;41.20;24.35;;;;;;;-0.25;80.56;99605.48;1711969;82;26483;-80
2021/12/05 08:14:33;;;;;;;42.55;22.62;;;;;;;-0.20;80.57;99604.58;1709742;82;27482;-80
2021/12/05 08:16:52;;;;;;;44.25;22.55;;;;;;;-0.20;80.72;99607.21;1706854;83;25786;-80
2021/12/05 08:19:19;;;;;;;37.63;20.50;;;;;;;-0.19;80.62;99607.54;1715320;81;25812;-80
2021/12/05 08:21:50;;;;;;;50.25;23.47;;;;;;;-0.17;80.74;99613.52;1721161;81;25776;-80
2021/12/05 08:24:15;;;;;;;43.30;23.30;;;;;;;-0.16;80.71;99617.80;1721448;81;25830;-80
2021/12/05 08:26:43;;;;;;;45.67;23.87;;;;;;;-0.19;80.52;99622.02;1723806;81;27457;-80
2021/12/05 08:29:14;;;;;;;47.62;25.70;;;;;;;-0.19;80.62;99621.53;1705156;82;25927;-80
2021/12/05 09:31:18;;;;;;;77.93;41.60;;;;;;;0.54;80.17;99672.55;1705410;83;25837;-79
2021/12/05 10:14:24;;;;;;;48.60;25.82;;;;;;;0.42;79.48;99649.54;1700826;83;28149;-79
2021/12/05 10:17:04;;;;;;;48.40;26.33;;;;;;;0.42;79.49;99637.69;1696561;83;26407;-79
2021/12/05 10:36:05;;;;;;;49.53;26.82;;;;;;;0.33;79.39;99633.77;1715830;81;25853;-79
2021/12/05 10:38:33;;;;;;;52.90;28.47;;;;;;;0.32;79.35;99633.44;1740007;81;25784;-79
2021/12/05 10:41:20;;;;;;;51.08;27.07;;;;;;;0.30;79.40;99628.80;1741838;81;28284;-79
2021/12/05 10:43:34;;;;;;;51.30;27.65;;;;;;;0.27;79.34;99632.55;1712492;81;25867;-79
2021/12/05 10:46:14;;;;;;;49.48;26.90;;;;;;;0.29;79.51;99638.50;1721784;81;26245;-80
2021/12/05 10:48:46;;;;;;;55.43;28.27;;;;;;;0.28;79.44;99638.14;1722948;81;25831;-79
2021/12/05 10:51:20;;;;;;;45.25;26.37;;;;;;;0.27;79.59;99638.30;1739779;81;25747;-79
2021/12/05 10:53:56;;;;;;;55.98;28.10;;;;;;;0.28;79.57;99638.66;1735573;81;27634;-79
2021/12/05 10:56:26;;;;;;;50.08;25.57;;;;;;;0.30;79.71;99635.39;1737051;81;25992;-79
2021/12/05 10:59:18;;;;;;;48.80;26.82;;;;;;;0.30;79.79;99637.51;1722079;81;25799;-79
2021/12/05 11:01:46;;;;;;;;;;;;;;;0.31;79.79;99637.03;1718916;81;26373;-79
2021/12/05 11:04:27;;;;;;;52.20;24.12;;;;;;;0.30;79.79;99642.77;1725265;82;26146;-79
2021/12/05 11:07:04;;;;;;;53.83;27.73;;;;;;;0.28;79.73;99644.73;1722747;81;27549;-79
2021/12/05 11:09:38;;;;;;;51.15;26.70;;;;;;;0.27;79.70;99652.30;1721737;81;25454;-79
2021/12/05 11:12:18;;;;;;;60.05;27.52;;;;;;;0.27;79.73;99649.67;1718068;81;25946;-79
2021/12/05 11:14:55;;;;;;;57.15;28.65;;;;;;;0.28;79.91;99648.67;1710650;81;26642;-79
2021/12/05 11:17:29;;;;;;;55.48;29.23;;;;;;;0.32;79.96;99647.92;1722628;82;25841;-78
2021/12/05 11:20:05;;;;;;;53.58;26.30;;;;;;;0.38;80.00;99653.44;1727249;81;27466;-78
2021/12/05 11:22:50;;;;;;;53.87;28.50;;;;;;;0.40;79.79;99651.97;1710429;83;26464;-79
2021/12/05 11:25:29;;;;;;;59.45;31.27;;;;;;;0.42;79.78;99661.88;1735869;80;25824;-79
2021/12/05 11:27:59;;;;;;;52.30;27.75;;;;;;;0.46;80.04;99654.02;1712204;81;26262;-79
2021/12/05 11:30:33;;;;;;;54.03;29.57;;;;;;;0.51;79.84;99658.37;1725949;81;25799;-79
2021/12/05 11:33:07;;;;;;;50.98;28.52;;;;;;;0.52;79.92;99651.63;1711876;81;28268;-79
2021/12/05 11:35:42;;;;;;;59.00;30.48;;;;;;;0.56;79.87;99657.42;1729975;82;26079;-79
2021/12/05 11:38:23;;;;;;;57.30;29.18;;;;;;;0.56;79.84;99655.63;1718245;81;25952;-79
2021/12/05 11:40:55;;;;;;;;;;;;;;;0.57;79.67;99648.08;1706734;82;26093;-79
2021/12/05 11:43:36;;;;;;;53.90;26.68;;;;;;;0.56;79.61;99642.45;1741737;80;25813;-79
2021/12/05 11:46:11;;;;;;;54.83;27.48;;;;;;;0.51;79.74;99641.25;1719616;82;27462;-79
2021/12/05 11:48:49;;;;;;;54.48;27.58;;;;;;;0.51;79.87;99632.83;1708818;82;25930;-79
2021/12/05 11:51:40;;;;;;;50.43;27.73;;;;;;;0.47;79.83;99624.08;1716357;81;25886;-79
2021/12/05 11:54:26;;;;;;;48.87;27.02;;;;;;;0.39;79.83;99627.42;1713370;83;26303;-78
2021/12/05 11:57:11;;;;;;;55.88;30.02;;;;;;;0.32;80.09;99619.75;1704228;83;25936;-79
2021/12/05 11:59:42;;;;;;;53.40;26.68;;;;;;;0.28;80.58;99623.66;1706264;83;28296;-79
2021/12/05 12:02:20;;;;;;;54.73;26.82;;;;;;;0.27;80.78;99625.97;1713981;81;25863;-79
2021/12/05 12:05:01;;;;;;;58.45;29.90;;;;;;;0.24;80.92;99629.36;1707011;82;25893;-78
2021/12/05 12:07:31;;;;;;;;;;;;;;;0.18;81.04;99633.41;1724240;81;26481;-79
2021/12/05 12:10:11;;;;;;;52.25;27.22;;;;;;;0.15;81.26;99631.05;1703398;81;26520;-79
2021/12/05 12:13:18;;;;;;;51.13;26.05;;;;;;;0.14;81.53;99629.41;1694344;83;28090;-79
2021/12/05 12:15:57;;;;;;;57.45;27.32;;;;;;;0.13;81.66;99632.20;1707420;83;25923;-79
2021/12/05 12:18:25;;;;;;;55.05;28.52;;;;;;;0.16;81.85;99634.52;1715796;83;26509;-79
2021/12/05 12:20:47;;;;;;;54.90;27.80;;;;;;;0.16;82.04;99635.36;1707799;83;25756;-78
2021/12/05 12:23:17;;;;;;;61.65;30.48;;;;;;;0.14;82.01;99636.47;1709244;83;25777;-78
2021/12/05 12:25:48;;;;;;;57.88;30.70;;;;;;;0.11;82.08;99630.20;1704753;83;28916;-79
2021/12/05 12:28:16;;;;;;;56.98;29.65;;;;;;;0.11;82.44;99626.25;1697741;82;43901;-79
2021/12/05 12:30:48;;;;;;;58.02;30.77;;;;;;;0.07;82.39;99624.37;1711665;81;25781;-81
2021/12/05 12:33:22;;;;;;;59.38;32.08;;;;;;;0.08;82.62;99625.20;1708786;83;25866;-79
2021/12/05 12:35:49;;;;;;;59.40;31.52;;;;;;;0.07;82.77;99636.70;1704941;83;26205;-79
2021/12/05 12:38:24;;;;;;;59.75;30.12;;;;;;;0.06;82.79;99639.00;1709001;83;27459;-77
2021/12/05 12:41:04;;;;;;;59.53;30.50;;;;;;;0.04;82.94;99635.69;1702533;81;26356;-82
2021/12/05 12:44:01;;;;;;;61.30;31.73;;;;;;;0.06;83.31;99637.69;1667644;85;25904;-81
2021/12/05 12:46:41;;;;;;;62.53;34.15;;;;;;;0.08;83.48;99633.94;1667817;84;25823;-83
2021/12/05 12:49:22;;;;;;;51.42;29.30;;;;;;;0.14;83.62;99635.16;1664717;85;25942;-80
2021/12/05 12:52:05;;;;;;;63.15;32.63;;;;;;;0.15;83.76;99640.78;1665322;83;27458;-81
2021/12/05 12:54:42;;;;;;;63.60;32.25;;;;;;;0.20;83.81;99651.69;1667681;85;26189;-82
2021/12/05 12:57:29;;;;;;;67.67;34.58;;;;;;;0.22;83.88;99656.33;1664400;85;25813;-82
2021/12/05 13:00:03;;;;;;;68.72;35.70;;;;;;;0.22;83.85;99661.59;1666728;85;25778;-79
2021/12/05 13:02:56;;;;;;;65.32;32.83;;;;;;;0.23;84.00;99668.05;1654826;85;26638;-80
2021/12/05 13:05:22;;;;;;;69.42;35.40;;;;;;;0.24;84.19;99671.02;1651020;86;27660;-80
2021/12/05 13:10:44;;;;;;;66.95;33.88;;;;;;;0.25;84.22;99671.38;1654247;86;25921;-80
2021/12/05 13:13:22;;;;;;;62.80;33.18;;;;;;;0.27;84.31;99680.44;1664106;85;25842;-81
2021/12/05 13:15:59;;;;;;;68.72;34.73;;;;;;;0.28;84.36;99686.06;1667077;85;25279;-80
2021/12/05 13:18:31;;;;;;;74.12;38.08;;;;;;;0.30;84.57;99690.19;1664023;85;28147;-80
2021/12/05 13:21:28;;;;;;;73.72;37.03;;;;;;;0.33;84.59;99692.55;1664699;85;25982;-81
2021/12/05 13:23:55;;;;;;;68.10;35.17;;;;;;;0.33;84.53;99693.02;1656222;85;25792;-83
2021/12/05 13:26:27;;;;;;;70.60;35.17;;;;;;;0.35;84.76;99702.92;1661235;85;25831;-81
2021/12/05 13:29:11;;;;;;;66.33;34.88;;;;;;;0.34;84.77;99699.97;1656899;86;26660;-80
2021/12/05 13:31:45;;;;;;;74.82;36.53;;;;;;;0.33;84.72;99703.56;1668943;85;27485;-81
2021/12/05 13:34:31;;;;;;;69.20;35.33;;;;;;;0.32;84.87;99710.63;1663496;85;25805;-80
2021/12/05 13:37:13;;;;;;;70.00;36.08;;;;;;;0.33;85.03;99710.98;1638306;86;25764;-80
2021/12/05 13:40:05;;;;;;;66.87;35.88;;;;;;;0.34;85.16;99707.36;1637990;86;25839;-81
2021/12/05 13:42:44;;;;;;;71.17;35.90;;;;;;;0.35;85.29;99712.14;1630998;87;25793;-80
2021/12/05 13:45:43;;;;;;;68.78;35.28;;;;;;;0.33;85.28;99715.41;1635703;87;27473;-81
2021/12/05 13:48:17;;;;;;;68.42;34.63;;;;;;;0.30;85.38;99716.52;1636515;87;25879;-81
2021/12/05 13:51:04;;;;;;;73.97;36.28;;;;;;;0.28;85.51;99718.47;1634108;87;25800;-80
2021/12/05 13:53:36;;;;;;;73.05;37.53;;;;;;;0.25;85.53;99725.84;1635915;86;25485;-81
2021/12/05 13:56:10;;;;;;;65.65;34.60;;;;;;;0.27;85.78;99729.16;1635951;87;25846;-80
2021/12/05 13:58:42;;;;;;;68.12;34.23;;;;;;;0.25;85.77;99728.47;1638578;87;28337;-81
2021/12/05 14:01:23;;;;;;;66.10;35.88;;;;;;;0.25;85.92;99725.84;1625023;87;25772;-81
2021/12/05 14:04:19;;;;;;;67.22;34.15;;;;;;;0.23;85.97;99722.04;1638153;87;25909;-82
2021/12/05 14:07:04;;;;;;;66.02;34.10;;;;;;;0.21;86.05;99717.88;1638030;86;26018;-81
2021/12/05 14:09:38;;;;;;;66.22;35.73;;;;;;;0.19;86.13;99725.94;1635038;87;25868;-81
2021/12/05 14:12:23;;;;;;;63.65;32.88;;;;;;;0.19;86.35;99718.03;1637352;87;28528;-80
2021/12/05 14:14:59;;;;;;;62.38;34.23;;;;;;;0.16;86.47;99714.36;1633525;87;26121;-80
2021/12/05 14:17:37;;;;;;;64.25;33.15;;;;;;;0.13;86.57;99715.95;1638160;87;25709;-80
2021/12/05 14:20:10;;;;;;;67.97;32.60;;;;;;;0.11;86.62;99713.13;1638815;86;25662;-80
2021/12/05 14:22:39;;;;;;;63.02;32.48;;;;;;;0.07;86.85;99713.05;1638600;86;25751;-80
2021/12/05 14:25:16;;;;;;;53.65;30.32;;;;;;;0.05;87.09;99713.20;1638408;86;28255;-81
2021/12/05 14:27:52;;;;;;;64.05;34.88;;;;;;;0.01;87.15;99715.77;1637886;87;26255;-80
2021/12/05 14:30:23;;;;;;;63.40;33.70;;;;;;;-0.01;87.20;99716.40;1636321;87;26109;-80
2021/12/05 14:32:58;;;;;;;62.33;32.28;;;;;;;-0.02;87.40;99718.19;1636954;86;25867;-81
2021/12/05 14:35:32;;;;;;;58.83;31.07;;;;;;;-0.04;87.42;99719.30;1652133;86;26531;-81
2021/12/05 14:38:00;;;;;;;64.03;32.88;;;;;;;-0.06;87.57;99715.98;1662082;86;27464;-80
2021/12/05 14:40:30;;;;;;;63.15;32.90;;;;;;;-0.07;87.69;99728.81;1659850;86;25960;-80
2021/12/05 14:43:03;;;;;;;62.73;33.53;;;;;;;-0.08;87.70;99736.34;1658328;85;26509;-81
2021/12/05 14:45:32;;;;;;;61.48;32.17;;;;;;;-0.09;87.76;99739.97;1655418;85;25895;-81
2021/12/05 14:48:02;;;;;;;65.80;32.95;;;;;;;-0.08;87.80;99737.66;1661244;85;25849;-81
2021/12/05 14:50:33;;;;;;;57.27;30.72;;;;;;;-0.13;87.93;99737.27;1663902;86;27521;-81
2021/12/05 14:53:05;;;;;;;62.93;32.03;;;;;;;-0.15;88.06;99734.76;1664036;85;26605;-81
2021/12/05 14:55:34;;;;;;;68.90;33.48;;;;;;;-0.18;88.25;99743.43;1664204;84;26508;-80
2021/12/05 14:58:08;;;;;;;66.37;32.55;;;;;;;-0.18;88.28;99744.75;1663881;84;25987;-80
2021/12/05 15:00:40;;;;;;;68.30;33.15;;;;;;;-0.18;88.27;99746.91;1664259;85;26183;-81
2021/12/05 15:03:13;;;;;;;66.72;33.83;;;;;;;-0.18;88.40;99751.33;1664280;85;27444;-80
2021/12/05 15:05:44;;;;;;;62.20;31.35;;;;;;;-0.18;88.41;99742.12;1664205;85;25782;-83
2021/12/05 15:08:14;;;;;;;58.52;29.42;;;;;;;-0.18;88.48;99744.27;1664297;85;25837;-81
2021/12/05 15:10:43;;;;;;;59.42;30.37;;;;;;;-0.18;88.61;99745.59;1664077;85;32482;-81
2021/12/05 15:13:10;;;;;;;64.35;31.57;;;;;;;-0.17;88.66;99747.74;1663814;85;26629;-81
2021/12/05 15:15:38;;;;;;;65.32;32.78;;;;;;;-0.19;88.79;99756.23;1664055;85;27642;-81
2021/12/05 15:18:07;;;;;;;62.73;31.35;;;;;;;-0.22;88.72;99761.79;1660695;85;25959;-81
2021/12/05 15:20:36;;;;;;;59.08;31.25;;;;;;;-0.22;88.91;99771.00;1660575;85;25796;-81
2021/12/05 15:23:06;;;;;;;60.40;32.42;;;;;;;-0.24;88.93;99767.67;1663528;86;25754;-81
2021/12/05 15:25:35;;;;;;;58.50;32.05;;;;;;;-0.23;88.94;99774.59;1663796;84;26374;-80
2021/12/05 15:28:04;;;;;;;59.15;32.33;;;;;;;-0.22;88.99;99773.63;1664587;85;27539;-81
2021/12/05 15:30:38;;;;;;;58.17;31.07;;;;;;;-0.21;89.07;99776.11;1664243;85;26117;-80
2021/12/05 15:33:17;;;;;;;61.08;31.87;;;;;;;-0.20;89.11;99775.64;1664201;85;26667;-81
2021/12/05 15:35:45;;;;;;;62.98;32.35;;;;;;;-0.23;89.14;99779.37;1661718;84;26430;-81
2021/12/05 15:38:16;;;;;;;60.45;32.35;;;;;;;-0.25;89.21;99774.73;1663296;85;26079;-80
2021/12/05 15:40:49;;;;;;;61.83;31.07;;;;;;;-0.24;89.28;99771.63;1661387;85;27468;-81
2021/12/05 15:43:20;;;;;;;61.08;32.20;;;;;;;-0.25;89.38;99777.36;1660246;85;25804;-82
2021/12/05 15:45:50;;;;;;;60.25;31.37;;;;;;;-0.26;89.46;99773.09;1657986;86;25905;-81
2021/12/05 15:48:34;;;;;;;57.80;29.17;;;;;;;-0.26;89.61;99775.72;1663401;86;26059;-80
2021/12/05 15:51:05;;;;;;;65.03;32.30;;;;;;;-0.26;89.95;99776.20;1663610;85;26526;-81
2021/12/05 15:53:35;;;;;;;56.58;30.57;;;;;;;-0.31;89.80;99777.92;1664301;84;27660;-80
2021/12/05 15:56:06;;;;;;;59.33;30.55;;;;;;;-0.32;89.98;99784.14;1654165;86;25746;-80
2021/12/05 15:58:45;;;;;;;61.18;31.75;;;;;;;-0.33;90.01;99781.18;1663692;86;25749;-81
2021/12/05 16:01:21;;;;;;;60.52;30.20;;;;;;;-0.34;90.21;99774.75;1663225;86;26543;-81
2021/12/05 16:03:55;;;;;;;56.35;30.48;;;;;;;-0.35;90.15;99780.96;1664330;84;25357;-81
2021/12/05 16:06:35;;;;;;;54.38;29.18;;;;;;;-0.34;90.38;99784.77;1665319;84;28302;-81
2021/12/05 16:09:12;;;;;;;61.92;30.97;;;;;;;-0.33;90.34;99785.60;1661066;85;25932;-80
2021/12/05 16:11:38;;;;;;;57.40;29.67;;;;;;;-0.32;90.38;99785.45;1674140;84;25800;-81
2021/12/05 16:14:05;;;;;;;60.90;29.87;;;;;;;-0.31;90.67;99787.13;1669288;84;25917;-81
2021/12/05 16:16:31;;;;;;;56.37;31.52;;;;;;;-0.31;90.55;99783.19;1664217;85;25901;-81
2021/12/05 16:19:00;;;;;;;63.83;32.35;;;;;;;-0.30;90.59;99782.20;1639066;86;27462;-81
2021/12/05 16:21:31;;;;;;;64.07;33.42;;;;;;;-0.29;90.63;99777.30;1663789;85;25838;-80
2021/12/05 16:24:13;;;;;;;64.62;32.67;;;;;;;-0.28;90.69;99776.31;1658565;85;25800;-81